DLH7734 EDDF-EGKK
Flight info
| Callsign | DLH7734 |
|---|---|
| Flight time | 1h 4m |
| Altitude | 40000 |
| Route | OBOKA3W/25C OBOKA Z29 TORNU DCT GALSO Q63 ARREK Y4 TEBRA |
| Aircraft | A346/H-SDE2E3FGHIJ3J4J5M1RWXY/LB1D1 |
Departure
| Time | 2026-04-17 09:03 |
|---|---|
| Airport | Frankfurt Main Airport (EDDF) |
Arrival
| Time | 2026-04-17 10:07 |
|---|---|
| Airport | London Gatwick Airport (EGKK) |
| Time | Latitude | Longitude | Altitude | Speed | Heading |
|---|---|---|---|---|---|
| 2026-04-17 08:57 | 50.04656 | 8.56929 | 374 ft | 0 kts | 197° |
| 2026-04-17 08:59 | 50.04642 | 8.56923 | 373 ft | 6 kts | 194° |
| 2026-04-17 08:59 | 50.04592 | 8.56906 | 372 ft | 9 kts | 192° |
| 2026-04-17 08:59 | 50.04510 | 8.56892 | 371 ft | 14 kts | 180° |
| 2026-04-17 08:59 | 50.04408 | 8.56862 | 370 ft | 16 kts | 192° |
| 2026-04-17 09:00 | 50.04301 | 8.56857 | 379 ft | 16 kts | 136° |
| 2026-04-17 09:00 | 50.04306 | 8.57034 | 377 ft | 19 kts | 69° |
| 2026-04-17 09:00 | 50.04357 | 8.57246 | 378 ft | 22 kts | 69° |
| 2026-04-17 09:00 | 50.04416 | 8.57491 | 375 ft | 26 kts | 69° |
| 2026-04-17 09:01 | 50.04479 | 8.57757 | 380 ft | 27 kts | 70° |
| 2026-04-17 09:01 | 50.04547 | 8.58039 | 382 ft | 28 kts | 70° |
| 2026-04-17 09:01 | 50.04617 | 8.58335 | 383 ft | 29 kts | 70° |
| 2026-04-17 09:01 | 50.04631 | 8.58395 | 381 ft | 10 kts | 70° |
| 2026-04-17 09:02 | 50.04636 | 8.58544 | 382 ft | 16 kts | 127° |
| 2026-04-17 09:02 | 50.04530 | 8.58608 | 382 ft | 17 kts | 193° |
| 2026-04-17 09:02 | 50.04456 | 8.58455 | 382 ft | 27 kts | 249° |
| 2026-04-17 09:02 | 50.04289 | 8.57756 | 376 ft | 107 kts | 249° |
| 2026-04-17 09:03 | 50.03947 | 8.56329 | 370 ft | 171 kts | 250° |
| 2026-04-17 09:03 | 50.03510 | 8.54462 | 899 ft | 187 kts | 249° |
| 2026-04-17 09:03 | 50.03063 | 8.52548 | 1742 ft | 190 kts | 249° |
| 2026-04-17 09:03 | 50.02595 | 8.50681 | 2596 ft | 189 kts | 241° |
| 2026-04-17 09:04 | 50.01752 | 8.49053 | 3128 ft | 201 kts | 218° |
| 2026-04-17 09:04 | 50.00479 | 8.48061 | 3838 ft | 205 kts | 194° |
| 2026-04-17 09:04 | 49.99023 | 8.47654 | 4546 ft | 218 kts | 188° |
| 2026-04-17 09:04 | 49.97494 | 8.47346 | 5410 ft | 223 kts | 187° |
| 2026-04-17 09:05 | 49.95977 | 8.46955 | 6350 ft | 224 kts | 193° |
| 2026-04-17 09:05 | 49.94442 | 8.46319 | 7134 ft | 236 kts | 196° |
| 2026-04-17 09:05 | 49.92814 | 8.45574 | 7818 ft | 249 kts | 200° |
| 2026-04-17 09:05 | 49.91310 | 8.44212 | 8716 ft | 255 kts | 224° |
| 2026-04-17 09:06 | 49.90231 | 8.42015 | 9711 ft | 258 kts | 238° |
| 2026-04-17 09:06 | 49.89305 | 8.39597 | 10675 ft | 262 kts | 242° |
| 2026-04-17 09:06 | 49.88661 | 8.36933 | 11593 ft | 266 kts | 260° |
| 2026-04-17 09:06 | 49.88568 | 8.34021 | 12396 ft | 278 kts | 274° |
| 2026-04-17 09:07 | 49.88738 | 8.30939 | 13072 ft | 295 kts | 276° |
| 2026-04-17 09:07 | 49.89122 | 8.27720 | 13685 ft | 313 kts | 287° |
| 2026-04-17 09:07 | 49.90016 | 8.24523 | 14261 ft | 332 kts | 301° |
| 2026-04-17 09:07 | 49.91366 | 8.21493 | 14795 ft | 350 kts | 306° |
| 2026-04-17 09:08 | 49.92908 | 8.18434 | 15274 ft | 369 kts | 310° |
| 2026-04-17 09:08 | 49.94667 | 8.15414 | 15820 ft | 384 kts | 314° |
| 2026-04-17 09:08 | 49.96629 | 8.12540 | 16674 ft | 389 kts | 318° |
| 2026-04-17 09:08 | 49.98681 | 8.09784 | 17657 ft | 392 kts | 319° |
| 2026-04-17 09:09 | 50.00772 | 8.07013 | 18575 ft | 397 kts | 319° |
| 2026-04-17 09:09 | 50.02886 | 8.04207 | 19348 ft | 402 kts | 319° |
| 2026-04-17 09:09 | 50.05021 | 8.01364 | 20150 ft | 406 kts | 319° |
| 2026-04-17 09:09 | 50.07173 | 7.98487 | 20966 ft | 409 kts | 318° |
| 2026-04-17 09:10 | 50.11533 | 7.92634 | 22565 ft | 418 kts | 318° |
| 2026-04-17 09:10 | 50.13743 | 7.89661 | 23354 ft | 422 kts | 318° |
| 2026-04-17 09:10 | 50.15975 | 7.86652 | 24063 ft | 426 kts | 318° |
| 2026-04-17 09:11 | 50.18227 | 7.83610 | 24709 ft | 430 kts | 318° |
| 2026-04-17 09:11 | 50.20499 | 7.80537 | 25366 ft | 433 kts | 318° |
| 2026-04-17 09:11 | 50.22804 | 7.77485 | 26015 ft | 437 kts | 321° |
| 2026-04-17 09:11 | 50.25286 | 7.74690 | 26663 ft | 441 kts | 326° |
| 2026-04-17 09:12 | 50.27943 | 7.72242 | 27304 ft | 445 kts | 330° |
| 2026-04-17 09:12 | 50.30751 | 7.70135 | 27922 ft | 449 kts | 334° |
| 2026-04-17 09:12 | 50.33626 | 7.68158 | 28560 ft | 453 kts | 335° |
| 2026-04-17 09:12 | 50.36523 | 7.66205 | 29199 ft | 455 kts | 335° |
| 2026-04-17 09:13 | 50.39429 | 7.64233 | 30046 ft | 453 kts | 335° |
| 2026-04-17 09:13 | 50.42310 | 7.62266 | 30935 ft | 449 kts | 335° |
| 2026-04-17 09:13 | 50.45114 | 7.60341 | 31772 ft | 444 kts | 335° |
| 2026-04-17 09:13 | 50.47970 | 7.58372 | 32629 ft | 440 kts | 334° |
| 2026-04-17 09:14 | 50.50726 | 7.56470 | 33463 ft | 437 kts | 334° |
| 2026-04-17 09:14 | 50.53473 | 7.54496 | 34276 ft | 433 kts | 332° |
| 2026-04-17 09:14 | 50.56141 | 7.52323 | 34952 ft | 429 kts | 329° |
| 2026-04-17 09:14 | 50.58553 | 7.50116 | 35537 ft | 427 kts | 326° |
| 2026-04-17 09:15 | 50.61067 | 7.47607 | 36094 ft | 426 kts | 325° |
| 2026-04-17 09:15 | 50.63551 | 7.45064 | 36640 ft | 426 kts | 324° |
| 2026-04-17 09:15 | 50.66032 | 7.42510 | 37170 ft | 425 kts | 324° |
| 2026-04-17 09:15 | 50.68436 | 7.39813 | 37667 ft | 423 kts | 320° |
| 2026-04-17 09:16 | 50.70691 | 7.36845 | 38164 ft | 421 kts | 315° |
| 2026-04-17 09:16 | 50.72789 | 7.33618 | 38643 ft | 420 kts | 311° |
| 2026-04-17 09:16 | 50.74739 | 7.30119 | 39006 ft | 419 kts | 307° |
| 2026-04-17 09:16 | 50.76477 | 7.26469 | 39268 ft | 421 kts | 303° |
| 2026-04-17 09:17 | 50.78057 | 7.22556 | 39478 ft | 423 kts | 299° |
| 2026-04-17 09:17 | 50.79465 | 7.18467 | 39693 ft | 425 kts | 297° |
| 2026-04-17 09:17 | 50.80832 | 7.14300 | 39926 ft | 427 kts | 296° |
| 2026-04-17 09:17 | 50.82193 | 7.10111 | 40149 ft | 429 kts | 296° |
| 2026-04-17 09:18 | 50.84933 | 7.01648 | 40229 ft | 433 kts | 296° |
| 2026-04-17 09:18 | 50.87679 | 6.93150 | 40235 ft | 433 kts | 296° |
| 2026-04-17 09:19 | 50.90416 | 6.84638 | 40238 ft | 433 kts | 296° |
| 2026-04-17 09:19 | 50.93146 | 6.76116 | 40236 ft | 433 kts | 296° |
| 2026-04-17 09:20 | 50.95872 | 6.67579 | 40236 ft | 433 kts | 296° |
| 2026-04-17 09:20 | 50.98589 | 6.59042 | 40239 ft | 433 kts | 296° |
| 2026-04-17 09:21 | 51.01305 | 6.50477 | 40235 ft | 434 kts | 296° |
| 2026-04-17 09:21 | 51.04013 | 6.41908 | 40239 ft | 434 kts | 296° |
| 2026-04-17 09:22 | 51.06717 | 6.33324 | 40239 ft | 434 kts | 296° |
| 2026-04-17 09:22 | 51.09421 | 6.24705 | 40236 ft | 434 kts | 296° |
| 2026-04-17 09:23 | 51.12079 | 6.16081 | 40237 ft | 434 kts | 294° |
| 2026-04-17 09:23 | 51.14283 | 6.07206 | 40236 ft | 433 kts | 288° |
| 2026-04-17 09:24 | 51.15958 | 5.97944 | 40236 ft | 433 kts | 285° |
| 2026-04-17 09:24 | 51.17475 | 5.88633 | 40238 ft | 433 kts | 284° |
| 2026-04-17 09:25 | 51.19196 | 5.79413 | 40234 ft | 433 kts | 289° |
| 2026-04-17 09:25 | 51.21178 | 5.70331 | 40231 ft | 433 kts | 289° |
| 2026-04-17 09:26 | 51.23168 | 5.61237 | 40234 ft | 433 kts | 289° |
| 2026-04-17 09:26 | 51.25149 | 5.52139 | 40239 ft | 433 kts | 289° |
| 2026-04-17 09:27 | 51.27121 | 5.43039 | 40236 ft | 433 kts | 289° |
| 2026-04-17 09:27 | 51.29085 | 5.33929 | 40233 ft | 433 kts | 289° |
| 2026-04-17 09:28 | 51.31042 | 5.24813 | 40235 ft | 433 kts | 288° |
| 2026-04-17 09:28 | 51.32991 | 5.15696 | 40233 ft | 433 kts | 288° |
| 2026-04-17 09:29 | 51.34932 | 5.06573 | 40235 ft | 433 kts | 288° |
| 2026-04-17 09:29 | 51.36871 | 4.97416 | 40229 ft | 433 kts | 288° |
| 2026-04-17 09:30 | 51.38799 | 4.88275 | 40229 ft | 432 kts | 288° |
| 2026-04-17 09:30 | 51.40717 | 4.79133 | 40226 ft | 432 kts | 288° |
| 2026-04-17 09:31 | 51.42627 | 4.69994 | 40233 ft | 432 kts | 288° |
| 2026-04-17 09:31 | 51.44530 | 4.60843 | 40234 ft | 432 kts | 288° |
| 2026-04-17 09:32 | 51.46426 | 4.51687 | 40242 ft | 432 kts | 288° |
| 2026-04-17 09:32 | 51.48313 | 4.42528 | 40239 ft | 432 kts | 288° |
| 2026-04-17 09:33 | 51.50182 | 4.33422 | 40240 ft | 432 kts | 288° |
| 2026-04-17 09:33 | 51.52052 | 4.24263 | 40224 ft | 432 kts | 288° |
| 2026-04-17 09:34 | 51.52986 | 4.19672 | 39965 ft | 430 kts | 288° |
| 2026-04-17 09:34 | 51.53911 | 4.15115 | 39725 ft | 427 kts | 288° |
| 2026-04-17 09:34 | 51.54828 | 4.10587 | 39491 ft | 423 kts | 288° |
| 2026-04-17 09:34 | 51.55735 | 4.06098 | 39249 ft | 420 kts | 288° |
| 2026-04-17 09:35 | 51.56631 | 4.01651 | 39013 ft | 417 kts | 288° |
| 2026-04-17 09:35 | 51.57523 | 3.97219 | 38768 ft | 415 kts | 288° |
| 2026-04-17 09:35 | 51.58409 | 3.92804 | 38474 ft | 414 kts | 287° |
| 2026-04-17 09:35 | 51.59293 | 3.88395 | 38189 ft | 414 kts | 287° |
| 2026-04-17 09:36 | 51.60177 | 3.83975 | 37896 ft | 415 kts | 287° |
| 2026-04-17 09:36 | 51.61059 | 3.79550 | 37625 ft | 415 kts | 287° |
| 2026-04-17 09:36 | 51.61941 | 3.75115 | 37352 ft | 415 kts | 287° |
| 2026-04-17 09:36 | 51.62819 | 3.70693 | 37085 ft | 415 kts | 287° |
| 2026-04-17 09:37 | 51.63699 | 3.66251 | 36817 ft | 415 kts | 287° |
| 2026-04-17 09:37 | 51.64292 | 3.63251 | 36643 ft | 416 kts | 287° |
| 2026-04-17 09:37 | 51.65169 | 3.58803 | 36382 ft | 416 kts | 287° |
| 2026-04-17 09:37 | 51.66031 | 3.54421 | 36125 ft | 416 kts | 287° |
| 2026-04-17 09:38 | 51.66907 | 3.49960 | 35873 ft | 416 kts | 287° |
| 2026-04-17 09:38 | 51.67780 | 3.45503 | 35616 ft | 417 kts | 286° |
| 2026-04-17 09:38 | 51.68651 | 3.41044 | 35357 ft | 417 kts | 286° |
| 2026-04-17 09:38 | 51.69521 | 3.36576 | 35129 ft | 417 kts | 286° |
| 2026-04-17 09:39 | 51.70385 | 3.32104 | 34880 ft | 417 kts | 285° |
| 2026-04-17 09:39 | 51.71120 | 3.27569 | 34635 ft | 417 kts | 282° |
| 2026-04-17 09:39 | 51.71674 | 3.22972 | 34391 ft | 417 kts | 278° |
| 2026-04-17 09:39 | 51.72045 | 3.18334 | 34221 ft | 416 kts | 275° |
| 2026-04-17 09:40 | 51.72243 | 3.08992 | 34200 ft | 417 kts | 269° |
| 2026-04-17 09:40 | 51.72072 | 3.04308 | 33871 ft | 418 kts | 265° |
| 2026-04-17 09:40 | 51.71725 | 2.99615 | 33426 ft | 418 kts | 263° |
| 2026-04-17 09:41 | 51.71333 | 2.94948 | 32862 ft | 419 kts | 263° |
| 2026-04-17 09:41 | 51.70934 | 2.90273 | 32258 ft | 420 kts | 262° |
| 2026-04-17 09:41 | 51.70531 | 2.85605 | 31621 ft | 420 kts | 262° |
| 2026-04-17 09:41 | 51.70125 | 2.80941 | 30961 ft | 420 kts | 262° |
| 2026-04-17 09:42 | 51.69717 | 2.76267 | 30290 ft | 421 kts | 262° |
| 2026-04-17 09:42 | 51.69306 | 2.71585 | 29532 ft | 422 kts | 261° |
| 2026-04-17 09:42 | 51.68891 | 2.66896 | 28801 ft | 422 kts | 261° |
| 2026-04-17 09:42 | 51.68475 | 2.62209 | 28230 ft | 423 kts | 261° |
| 2026-04-17 09:43 | 51.68056 | 2.57522 | 27698 ft | 420 kts | 261° |
| 2026-04-17 09:43 | 51.67640 | 2.52881 | 27219 ft | 416 kts | 261° |
| 2026-04-17 09:43 | 51.67227 | 2.48294 | 26758 ft | 411 kts | 261° |
| 2026-04-17 09:43 | 51.66816 | 2.43743 | 26306 ft | 406 kts | 261° |
| 2026-04-17 09:44 | 51.66404 | 2.39205 | 25843 ft | 402 kts | 261° |
| 2026-04-17 09:44 | 51.65998 | 2.34763 | 25417 ft | 399 kts | 261° |
| 2026-04-17 09:44 | 51.65595 | 2.30357 | 24975 ft | 395 kts | 260° |
| 2026-04-17 09:44 | 51.65193 | 2.25995 | 24538 ft | 392 kts | 260° |
| 2026-04-17 09:45 | 51.64793 | 2.21664 | 24099 ft | 389 kts | 260° |
| 2026-04-17 09:45 | 51.64393 | 2.17352 | 23658 ft | 387 kts | 260° |
| 2026-04-17 09:45 | 51.63995 | 2.13082 | 23162 ft | 384 kts | 260° |
| 2026-04-17 09:45 | 51.63598 | 2.08851 | 22715 ft | 380 kts | 260° |
| 2026-04-17 09:46 | 51.63204 | 2.04658 | 22271 ft | 377 kts | 260° |
| 2026-04-17 09:46 | 51.62811 | 2.00494 | 21847 ft | 374 kts | 260° |
| 2026-04-17 09:46 | 51.62416 | 1.96338 | 21404 ft | 372 kts | 260° |
| 2026-04-17 09:46 | 51.62025 | 1.92227 | 20975 ft | 370 kts | 260° |
| 2026-04-17 09:47 | 51.61596 | 1.88155 | 20536 ft | 367 kts | 256° |
| 2026-04-17 09:47 | 51.60770 | 1.84281 | 20113 ft | 365 kts | 245° |
| 2026-04-17 09:47 | 51.59517 | 1.80739 | 19680 ft | 363 kts | 236° |
| 2026-04-17 09:47 | 51.57930 | 1.77582 | 19260 ft | 362 kts | 230° |
| 2026-04-17 09:48 | 51.56269 | 1.74541 | 18842 ft | 361 kts | 229° |
| 2026-04-17 09:48 | 51.54605 | 1.71529 | 18404 ft | 359 kts | 229° |
| 2026-04-17 09:48 | 51.52971 | 1.68575 | 17937 ft | 358 kts | 229° |
| 2026-04-17 09:48 | 51.51321 | 1.65589 | 17498 ft | 356 kts | 230° |
| 2026-04-17 09:49 | 51.49814 | 1.62465 | 17067 ft | 353 kts | 236° |
| 2026-04-17 09:49 | 51.48551 | 1.59041 | 16648 ft | 350 kts | 243° |
| 2026-04-17 09:49 | 51.47568 | 1.55438 | 16268 ft | 359 kts | 248° |
| 2026-04-17 09:49 | 51.46686 | 1.51667 | 16187 ft | 369 kts | 249° |
| 2026-04-17 09:50 | 51.45796 | 1.47775 | 16188 ft | 371 kts | 249° |
| 2026-04-17 09:50 | 51.44917 | 1.43930 | 15894 ft | 364 kts | 249° |
| 2026-04-17 09:50 | 51.43936 | 1.40155 | 14943 ft | 371 kts | 241° |
| 2026-04-17 09:50 | 51.42433 | 1.36779 | 14272 ft | 371 kts | 228° |
| 2026-04-17 09:51 | 51.40536 | 1.34069 | 14062 ft | 361 kts | 218° |
| 2026-04-17 09:51 | 51.38521 | 1.31651 | 14107 ft | 362 kts | 217° |
| 2026-04-17 09:51 | 51.36492 | 1.29251 | 14129 ft | 362 kts | 217° |
| 2026-04-17 09:51 | 51.34463 | 1.26857 | 14150 ft | 362 kts | 217° |
| 2026-04-17 09:52 | 51.32431 | 1.24461 | 14170 ft | 362 kts | 217° |
| 2026-04-17 09:52 | 51.30405 | 1.22073 | 14175 ft | 360 kts | 217° |
| 2026-04-17 09:52 | 51.28409 | 1.19723 | 13857 ft | 353 kts | 217° |
| 2026-04-17 09:52 | 51.26428 | 1.17390 | 13174 ft | 353 kts | 217° |
| 2026-04-17 09:53 | 51.24464 | 1.15080 | 12638 ft | 348 kts | 217° |
| 2026-04-17 09:53 | 51.22521 | 1.12797 | 12040 ft | 346 kts | 217° |
| 2026-04-17 09:53 | 51.20584 | 1.10523 | 11454 ft | 344 kts | 217° |
| 2026-04-17 09:53 | 51.18662 | 1.08269 | 10859 ft | 342 kts | 217° |
| 2026-04-17 09:54 | 51.16749 | 1.06028 | 10379 ft | 339 kts | 218° |
| 2026-04-17 09:54 | 51.14840 | 1.03792 | 10206 ft | 341 kts | 218° |
| 2026-04-17 09:54 | 51.12941 | 1.01573 | 10201 ft | 332 kts | 218° |
| 2026-04-17 09:54 | 51.11127 | 0.99456 | 10199 ft | 314 kts | 218° |
| 2026-04-17 09:55 | 51.09415 | 0.97461 | 10197 ft | 296 kts | 218° |
| 2026-04-17 09:55 | 51.07804 | 0.95558 | 10193 ft | 280 kts | 220° |
| 2026-04-17 09:55 | 51.06415 | 0.93478 | 10200 ft | 273 kts | 229° |
| 2026-04-17 09:55 | 51.05252 | 0.91121 | 10095 ft | 267 kts | 237° |
| 2026-04-17 09:56 | 51.04330 | 0.88549 | 9627 ft | 269 kts | 243° |
| 2026-04-17 09:56 | 51.03524 | 0.85875 | 9244 ft | 267 kts | 244° |
| 2026-04-17 09:56 | 51.02737 | 0.83204 | 8875 ft | 265 kts | 245° |
| 2026-04-17 09:56 | 51.01954 | 0.80551 | 8518 ft | 264 kts | 244° |
| 2026-04-17 09:57 | 51.01198 | 0.77912 | 8160 ft | 262 kts | 250° |
| 2026-04-17 09:57 | 51.01073 | 0.75042 | 7731 ft | 266 kts | 281° |
| 2026-04-17 09:57 | 51.01687 | 0.72286 | 7459 ft | 263 kts | 288° |
| 2026-04-17 09:57 | 51.02339 | 0.69567 | 7082 ft | 263 kts | 288° |
| 2026-04-17 09:58 | 51.02970 | 0.66859 | 6791 ft | 259 kts | 287° |
| 2026-04-17 09:58 | 51.03582 | 0.64153 | 6150 ft | 259 kts | 287° |
| 2026-04-17 09:58 | 51.04182 | 0.61461 | 5789 ft | 257 kts | 287° |
| 2026-04-17 09:58 | 51.04771 | 0.58780 | 5398 ft | 256 kts | 286° |
| 2026-04-17 09:59 | 51.05353 | 0.56112 | 5014 ft | 254 kts | 286° |
| 2026-04-17 09:59 | 51.05929 | 0.53449 | 4604 ft | 254 kts | 286° |
| 2026-04-17 09:59 | 51.06501 | 0.50796 | 4223 ft | 253 kts | 286° |
| 2026-04-17 09:59 | 51.07069 | 0.48152 | 3843 ft | 251 kts | 285° |
| 2026-04-17 10:00 | 51.07632 | 0.45535 | 3600 ft | 249 kts | 285° |
| 2026-04-17 10:00 | 51.08192 | 0.42917 | 3588 ft | 250 kts | 285° |
| 2026-04-17 10:00 | 51.08747 | 0.40320 | 3574 ft | 251 kts | 285° |
| 2026-04-17 10:00 | 51.09316 | 0.37649 | 3571 ft | 250 kts | 285° |
| 2026-04-17 10:01 | 51.09875 | 0.35029 | 3574 ft | 250 kts | 285° |
| 2026-04-17 10:01 | 51.10433 | 0.32408 | 3580 ft | 250 kts | 285° |
| 2026-04-17 10:01 | 51.10991 | 0.29783 | 3605 ft | 251 kts | 285° |
| 2026-04-17 10:01 | 51.11550 | 0.27151 | 3614 ft | 251 kts | 285° |
| 2026-04-17 10:02 | 51.12109 | 0.24517 | 3573 ft | 250 kts | 285° |
| 2026-04-17 10:02 | 51.12666 | 0.21896 | 3389 ft | 249 kts | 285° |
| 2026-04-17 10:02 | 51.13219 | 0.19289 | 3176 ft | 248 kts | 285° |
| 2026-04-17 10:02 | 51.13768 | 0.16692 | 2963 ft | 247 kts | 285° |
| 2026-04-17 10:03 | 51.14315 | 0.14094 | 2753 ft | 246 kts | 285° |
| 2026-04-17 10:03 | 51.14857 | 0.11516 | 2694 ft | 246 kts | 285° |
| 2026-04-17 10:03 | 51.15408 | 0.08893 | 2282 ft | 248 kts | 285° |
| 2026-04-17 10:03 | 51.15957 | 0.06300 | 2008 ft | 242 kts | 285° |
| 2026-04-17 10:04 | 51.16479 | 0.03825 | 2004 ft | 229 kts | 284° |
| 2026-04-17 10:04 | 51.16964 | 0.01510 | 2028 ft | 210 kts | 285° |
| 2026-04-17 10:04 | 51.17254 | -0.00610 | 2010 ft | 188 kts | 268° |
| 2026-04-17 10:04 | 51.17110 | -0.02583 | 1958 ft | 169 kts | 256° |
| 2026-04-17 10:05 | 51.16872 | -0.04304 | 1895 ft | 152 kts | 253° |
| 2026-04-17 10:05 | 51.16629 | -0.05923 | 1694 ft | 148 kts | 254° |
| 2026-04-17 10:05 | 51.16399 | -0.07531 | 1460 ft | 150 kts | 255° |
| 2026-04-17 10:05 | 51.16183 | -0.09166 | 1249 ft | 151 kts | 255° |
| 2026-04-17 10:06 | 51.15973 | -0.10813 | 1066 ft | 152 kts | 255° |
| 2026-04-17 10:06 | 51.15745 | -0.12477 | 853 ft | 152 kts | 254° |
| 2026-04-17 10:06 | 51.15498 | -0.14121 | 608 ft | 151 kts | 253° |
| 2026-04-17 10:06 | 51.15267 | -0.15762 | 403 ft | 152 kts | 256° |
| 2026-04-17 10:07 | 51.15042 | -0.17425 | 238 ft | 152 kts | 256° |
| 2026-04-17 10:07 | 51.14845 | -0.18795 | 216 ft | 93 kts | 257° |
| 2026-04-17 10:07 | 51.14756 | -0.19459 | 224 ft | 47 kts | 258° |
| 2026-04-17 10:07 | 51.14703 | -0.19969 | 218 ft | 46 kts | 272° |
| 2026-04-17 10:08 | 51.14723 | -0.20148 | 222 ft | 15 kts | 283° |
| 2026-04-17 10:08 | 51.14749 | -0.20340 | 223 ft | 20 kts | 282° |
| 2026-04-17 10:08 | 51.14780 | -0.20576 | 218 ft | 23 kts | 287° |
| 2026-04-17 10:08 | 51.14857 | -0.20617 | 223 ft | 13 kts | 53° |
| 2026-04-17 10:09 | 51.14895 | -0.20450 | 222 ft | 18 kts | 72° |
| 2026-04-17 10:09 | 51.14938 | -0.20233 | 223 ft | 22 kts | 78° |
| 2026-04-17 10:09 | 51.14963 | -0.19969 | 217 ft | 26 kts | 81° |
| 2026-04-17 10:09 | 51.14999 | -0.19673 | 218 ft | 29 kts | 77° |
| 2026-04-17 10:10 | 51.15040 | -0.19372 | 224 ft | 21 kts | 78° |
| 2026-04-17 10:10 | 51.15075 | -0.19118 | 224 ft | 25 kts | 78° |
| 2026-04-17 10:10 | 51.15115 | -0.18823 | 224 ft | 29 kts | 78° |
| 2026-04-17 10:11 | 51.15169 | -0.18430 | 222 ft | 14 kts | 77° |
| 2026-04-17 10:11 | 51.15189 | -0.18253 | 224 ft | 18 kts | 79° |
| 2026-04-17 10:11 | 51.15216 | -0.18028 | 225 ft | 23 kts | 79° |
| 2026-04-17 10:11 | 51.15253 | -0.17768 | 219 ft | 21 kts | 76° |
| 2026-04-17 10:12 | 51.15290 | -0.17520 | 224 ft | 25 kts | 77° |
| 2026-04-17 10:12 | 51.15308 | -0.17331 | 223 ft | 14 kts | 83° |
| 2026-04-17 10:12 | 51.15371 | -0.17251 | 222 ft | 13 kts | 4° |
| 2026-04-17 10:12 | 51.15475 | -0.17301 | 218 ft | 17 kts | 332° |
| 2026-04-17 10:13 | 51.15577 | -0.17304 | 222 ft | 15 kts | 25° |
| 2026-04-17 10:13 | 51.15633 | -0.17187 | 224 ft | 12 kts | 78° |
| 2026-04-17 10:13 | 51.15647 | -0.17029 | 216 ft | 17 kts | 81° |
| 2026-04-17 10:13 | 51.15637 | -0.16942 | 221 ft | 6 kts | 139° |
| 2026-04-17 10:14 | 51.15618 | -0.16925 | 224 ft | 0 kts | 161° |
| 2026-04-17 10:14 | 51.15604 | -0.16917 | 223 ft | 4 kts | 162° |
| 2026-04-17 10:14 | 51.15587 | -0.16910 | 218 ft | 0 kts | 165° |